createdAt,value
2023-04-23T00:00:28.443Z,30.84
2023-04-23T00:01:28.572Z,30.83
2023-04-23T00:02:28.664Z,30.86
2023-04-23T00:03:28.765Z,30.83
2023-04-23T00:04:28.925Z,30.83
2023-04-23T00:05:28.852Z,30.85
2023-04-23T00:06:28.780Z,30.85
2023-04-23T00:07:28.862Z,30.84
2023-04-23T00:08:28.942Z,30.84
2023-04-23T00:09:29.030Z,30.86
2023-04-23T00:10:29.032Z,30.83
2023-04-23T00:11:29.096Z,30.84
2023-04-23T00:12:29.122Z,30.82
2023-04-23T00:13:29.265Z,30.87
2023-04-23T00:14:29.320Z,30.87
2023-04-23T00:15:29.310Z,30.88
2023-04-23T00:16:29.398Z,30.87
2023-04-23T00:17:29.461Z,30.87
2023-04-23T00:18:29.486Z,30.89
2023-04-23T00:19:29.514Z,30.89
2023-04-23T00:20:29.618Z,30.87
2023-04-23T00:21:29.672Z,30.89
2023-04-23T00:22:29.783Z,30.87
2023-04-23T00:23:29.742Z,30.87
2023-04-23T00:24:29.845Z,30.87
2023-04-23T00:25:29.981Z,30.89
2023-04-23T00:26:29.965Z,30.88
2023-04-23T00:27:30.028Z,30.88
2023-04-23T00:28:30.092Z,30.90
2023-04-23T00:29:30.136Z,30.90
2023-04-23T00:30:30.143Z,30.89
2023-04-23T00:31:30.308Z,30.90
2023-04-23T00:32:30.294Z,30.89
2023-04-23T00:33:30.404Z,30.88
2023-04-23T00:34:30.428Z,30.89
2023-04-23T00:35:30.509Z,30.87
2023-04-23T00:36:30.598Z,30.88
2023-04-23T00:37:30.535Z,30.88
2023-04-23T00:38:30.621Z,30.88
2023-04-23T00:39:30.646Z,30.88
2023-04-23T00:40:30.740Z,30.88
2023-04-23T00:41:30.759Z,30.87
2023-04-23T00:42:30.842Z,30.88
2023-04-23T00:43:30.897Z,30.89
2023-04-23T00:44:30.949Z,30.88
2023-04-23T00:45:31.051Z,30.87
2023-04-23T00:46:31.073Z,30.88
2023-04-23T00:47:31.189Z,30.87
2023-04-23T00:48:31.188Z,30.89
2023-04-23T00:49:31.247Z,30.90
2023-04-23T00:50:31.310Z,30.90
2023-04-23T00:51:31.453Z,30.91
2023-04-23T00:52:31.477Z,30.88
2023-04-23T00:53:31.461Z,30.89
2023-04-23T00:54:31.538Z,30.89
2023-04-23T00:55:31.653Z,30.90
2023-04-23T00:56:31.712Z,30.93
2023-04-23T00:57:31.762Z,30.90
2023-04-23T00:58:31.804Z,30.90
2023-04-23T00:59:31.883Z,30.90
2023-04-23T01:00:31.957Z,30.88
2023-04-23T01:01:32.011Z,30.91
2023-04-23T01:02:32.204Z,30.92
2023-04-23T01:03:32.223Z,30.90
2023-04-23T01:04:32.290Z,30.89
2023-04-23T01:05:32.377Z,30.90
2023-04-23T01:06:32.368Z,30.90
2023-04-23T01:07:32.339Z,30.89
2023-04-23T01:08:32.467Z,30.91
2023-04-23T01:09:32.463Z,30.89
2023-04-23T01:10:32.582Z,30.91
2023-04-23T01:11:32.657Z,30.90
2023-04-23T01:12:32.654Z,30.90
2023-04-23T01:13:32.720Z,30.90
2023-04-23T01:14:32.771Z,30.92
2023-04-23T01:15:32.849Z,30.90
2023-04-23T01:16:33.009Z,30.92
2023-04-23T01:17:32.929Z,30.92
2023-04-23T01:18:32.985Z,30.90
2023-04-23T01:19:33.112Z,30.92
2023-04-23T01:20:33.257Z,30.93
2023-04-23T01:21:33.214Z,30.94
2023-04-23T01:22:33.258Z,30.93
2023-04-23T01:23:33.320Z,30.93
2023-04-23T01:24:33.390Z,30.94
2023-04-23T01:25:33.455Z,30.92
2023-04-23T01:26:33.500Z,30.92
2023-04-23T01:27:33.541Z,30.91
2023-04-23T01:28:33.649Z,30.91
2023-04-23T01:29:33.725Z,30.96
2023-04-23T01:30:33.751Z,30.93
2023-04-23T01:31:33.832Z,30.95
2023-04-23T01:32:33.866Z,30.93
2023-04-23T01:33:33.966Z,30.92
2023-04-23T01:34:33.956Z,30.95
2023-04-23T01:35:34.084Z,30.94
2023-04-23T01:36:34.090Z,30.93
2023-04-23T01:37:34.217Z,30.94
2023-04-23T01:38:34.188Z,30.94
2023-04-23T01:39:34.314Z,30.95
2023-04-23T01:40:34.349Z,30.93
2023-04-23T01:41:34.382Z,30.94
2023-04-23T01:42:34.687Z,30.93
2023-04-23T01:43:34.490Z,30.95
2023-04-23T01:44:34.620Z,30.93
2023-04-23T01:45:34.577Z,30.96
2023-04-23T01:46:34.914Z,30.95
2023-04-23T01:47:34.819Z,30.96
2023-04-23T01:48:34.840Z,30.94
2023-04-23T01:49:34.887Z,30.96
2023-04-23T01:50:34.890Z,30.95
2023-04-23T01:51:34.995Z,30.94
2023-04-23T01:52:35.045Z,30.95
2023-04-23T01:53:35.130Z,30.96
2023-04-23T01:54:35.152Z,30.96
2023-04-23T01:55:35.196Z,30.96
2023-04-23T01:56:35.260Z,30.95
2023-04-23T01:57:35.354Z,30.96
2023-04-23T01:58:35.437Z,30.96
2023-04-23T01:59:35.506Z,30.95
2023-04-23T02:00:35.569Z,30.96
2023-04-23T02:01:35.699Z,30.96
2023-04-23T02:02:35.842Z,30.97
2023-04-23T02:03:35.881Z,30.97
2023-04-23T02:04:35.833Z,30.96
2023-04-23T02:05:35.814Z,30.98
2023-04-23T02:06:35.912Z,30.98
2023-04-23T02:07:35.953Z,30.98
2023-04-23T02:08:35.991Z,30.96
2023-04-23T02:09:36.079Z,30.97
2023-04-23T02:10:36.158Z,30.96
2023-04-23T02:11:36.229Z,30.98
2023-04-23T02:12:36.319Z,30.99
2023-04-23T02:13:36.338Z,30.99
2023-04-23T02:14:36.419Z,30.99
2023-04-23T02:15:36.454Z,30.98
2023-04-23T02:16:36.533Z,31.01
2023-04-23T02:17:36.614Z,31.00
2023-04-23T02:18:36.680Z,30.98
2023-04-23T02:19:36.747Z,31.01
2023-04-23T02:20:36.983Z,31.00
2023-04-23T02:21:36.908Z,31.01
2023-04-23T02:22:37.000Z,30.99
2023-04-23T02:23:36.999Z,31.00
2023-04-23T02:24:37.073Z,31.04
2023-04-23T02:25:37.184Z,31.01
2023-04-23T02:26:37.291Z,31.01
2023-04-23T02:27:37.299Z,31.01
2023-04-23T02:28:37.360Z,31.03
2023-04-23T02:29:37.337Z,31.01
2023-04-23T02:30:37.462Z,31.02
2023-04-23T02:31:37.516Z,31.02
2023-04-23T02:32:37.631Z,31.01
2023-04-23T02:33:37.611Z,31.03
2023-04-23T02:34:37.739Z,31.01
2023-04-23T02:35:37.769Z,31.01
2023-04-23T02:36:37.876Z,31.02
2023-04-23T02:37:37.875Z,31.03
2023-04-23T02:38:37.914Z,31.04
2023-04-23T02:39:38.021Z,31.02
2023-04-23T02:40:38.046Z,31.03
2023-04-23T02:41:38.150Z,31.01
2023-04-23T02:42:38.136Z,31.03
2023-04-23T02:43:38.262Z,31.04
2023-04-23T02:44:38.274Z,31.03
2023-04-23T02:45:38.352Z,31.03
2023-04-23T02:46:38.412Z,31.05
2023-04-23T02:47:38.595Z,31.02
2023-04-23T02:48:38.587Z,31.04
2023-04-23T02:49:38.603Z,31.05
2023-04-23T02:50:38.683Z,31.02
2023-04-23T02:51:38.735Z,31.03
2023-04-23T02:52:38.838Z,31.02
2023-04-23T02:53:38.849Z,31.04
2023-04-23T02:54:39.016Z,31.03
2023-04-23T02:55:38.957Z,31.05
2023-04-23T02:56:39.023Z,31.05
2023-04-23T02:57:39.028Z,31.04
2023-04-23T02:58:39.136Z,31.04
2023-04-23T02:59:39.141Z,31.06
2023-04-23T03:00:39.239Z,31.08
2023-04-23T03:01:39.272Z,31.03
2023-04-23T03:02:42.119Z,31.04
2023-04-23T03:03:39.632Z,31.05
2023-04-23T03:04:39.556Z,31.07
2023-04-23T03:05:39.288Z,31.06
2023-04-23T03:06:39.284Z,31.09
2023-04-23T03:07:39.316Z,31.05
2023-04-23T03:08:39.271Z,31.05
2023-04-23T03:09:39.242Z,31.06
2023-04-23T03:10:39.259Z,31.05
2023-04-23T03:11:39.239Z,31.06
2023-04-23T03:12:39.271Z,31.08
2023-04-23T03:13:39.235Z,31.07
2023-04-23T03:14:39.386Z,31.06
2023-04-23T03:15:39.184Z,31.06
2023-04-23T03:16:39.234Z,31.06
2023-04-23T03:17:39.233Z,31.06
2023-04-23T03:18:39.213Z,31.06
2023-04-23T03:19:39.179Z,31.05
2023-04-23T03:20:39.190Z,31.07
2023-04-23T03:21:39.148Z,31.08
2023-04-23T03:22:39.197Z,31.09
2023-04-23T03:23:39.180Z,31.08
2023-04-23T03:24:39.365Z,31.09
2023-04-23T03:25:39.146Z,31.05
2023-04-23T03:26:39.120Z,31.08
2023-04-23T03:27:40.304Z,31.07
2023-04-23T03:28:39.181Z,31.07
2023-04-23T03:29:39.469Z,31.08
2023-04-23T03:30:39.132Z,31.08
2023-04-23T03:31:39.121Z,31.09
2023-04-23T03:32:39.154Z,31.09
2023-04-23T03:33:39.120Z,31.08
2023-04-23T03:34:39.299Z,31.09
2023-04-23T03:35:39.112Z,31.08
2023-04-23T03:36:39.106Z,31.09
2023-04-23T03:37:39.104Z,31.10
2023-04-23T03:38:39.110Z,31.08
2023-04-23T03:39:39.153Z,31.09
2023-04-23T03:40:39.226Z,31.10
2023-04-23T03:41:39.275Z,31.09
2023-04-23T03:42:39.340Z,31.12
2023-04-23T03:43:39.386Z,31.10
2023-04-23T03:44:39.608Z,31.09
2023-04-23T03:45:39.508Z,31.10
2023-04-23T03:46:39.620Z,31.11
2023-04-23T03:47:39.651Z,31.12
2023-04-23T03:48:39.704Z,31.10
2023-04-23T03:49:39.826Z,31.11
2023-04-23T03:50:39.799Z,31.13
2023-04-23T03:51:39.828Z,31.11
2023-04-23T03:52:39.879Z,31.12
2023-04-23T03:53:39.923Z,31.14
2023-04-23T03:54:40.247Z,31.08
2023-04-23T03:55:39.986Z,31.12
2023-04-23T03:56:40.059Z,31.12
2023-04-23T03:57:40.095Z,31.12
2023-04-23T03:58:40.176Z,31.11
2023-04-23T03:59:40.223Z,31.11
2023-04-23T04:00:40.291Z,31.14
2023-04-23T04:01:40.290Z,31.14
2023-04-23T04:02:40.728Z,31.11
2023-04-23T04:03:40.736Z,31.11
2023-04-23T04:04:40.918Z,31.14
2023-04-23T04:05:40.645Z,31.14
2023-04-23T04:06:40.558Z,31.14
2023-04-23T04:07:40.698Z,31.15
2023-04-23T04:08:40.734Z,31.14
2023-04-23T04:09:40.812Z,31.14
2023-04-23T04:10:40.804Z,31.14
2023-04-23T04:11:40.872Z,31.15
2023-04-23T04:12:40.981Z,31.16
2023-04-23T04:13:40.937Z,31.14
2023-04-23T04:14:41.318Z,31.15
2023-04-23T04:15:41.096Z,31.16
2023-04-23T04:16:41.065Z,31.14
2023-04-23T04:17:41.212Z,31.15
2023-04-23T04:18:41.155Z,31.16
2023-04-23T04:19:41.237Z,31.17
2023-04-23T04:20:41.247Z,31.15
2023-04-23T04:21:41.286Z,31.15
2023-04-23T04:22:41.422Z,31.14
2023-04-23T04:23:41.404Z,31.15
2023-04-23T04:24:41.885Z,31.15
2023-04-23T04:25:41.474Z,31.16
2023-04-23T04:26:41.553Z,31.16
2023-04-23T04:27:41.602Z,31.15
2023-04-23T04:28:41.606Z,31.15
2023-04-23T04:29:41.664Z,31.16
2023-04-23T04:30:41.769Z,31.15
2023-04-23T04:31:41.793Z,31.20
2023-04-23T04:32:41.914Z,31.20
2023-04-23T04:33:41.870Z,31.17
2023-04-23T04:34:42.272Z,31.18
2023-04-23T04:35:41.992Z,31.18
2023-04-23T04:36:42.075Z,31.17
2023-04-23T04:37:42.070Z,31.20
2023-04-23T04:38:42.139Z,31.21
2023-04-23T04:39:42.239Z,31.19
2023-04-23T04:40:42.235Z,31.19
2023-04-23T04:41:42.236Z,31.19
2023-04-23T04:42:43.137Z,31.22
2023-04-23T04:43:42.363Z,31.20
2023-04-23T04:44:42.740Z,31.21
2023-04-23T04:45:42.427Z,31.18
2023-04-23T04:46:42.520Z,31.22
2023-04-23T04:47:42.581Z,31.20
2023-04-23T04:48:42.600Z,31.15
2023-04-23T04:49:42.621Z,31.20
2023-04-23T04:50:42.714Z,31.22
2023-04-23T04:51:43.451Z,31.17
2023-04-23T04:52:42.843Z,31.18
2023-04-23T04:53:42.902Z,31.19
2023-04-23T04:54:43.232Z,31.22
2023-04-23T04:55:42.949Z,31.21
2023-04-23T04:56:43.108Z,31.17
2023-04-23T04:57:43.083Z,31.21
2023-04-23T04:58:43.078Z,31.19
2023-04-23T04:59:43.361Z,31.20
2023-04-23T05:00:43.213Z,31.19
2023-04-23T05:01:43.255Z,31.19
2023-04-23T05:02:43.374Z,31.22
2023-04-23T05:03:43.518Z,31.20
2023-04-23T05:04:43.695Z,31.20
2023-04-23T05:05:43.428Z,31.18
2023-04-23T05:06:43.450Z,31.17
2023-04-23T05:07:43.461Z,31.21
2023-04-23T05:08:43.547Z,31.19
2023-04-23T05:09:45.108Z,31.19
2023-04-23T05:10:43.630Z,31.18
2023-04-23T05:11:43.779Z,31.23
2023-04-23T05:12:43.679Z,31.21
2023-04-23T05:13:43.714Z,31.17
2023-04-23T05:14:43.865Z,31.19
2023-04-23T05:15:43.768Z,31.21
2023-04-23T05:16:43.839Z,31.21
2023-04-23T05:17:43.834Z,31.22
2023-04-23T05:18:43.817Z,31.22
2023-04-23T05:19:43.904Z,31.21
2023-04-23T05:20:43.926Z,31.19
2023-04-23T05:21:43.920Z,31.20
2023-04-23T05:22:43.947Z,31.19
2023-04-23T05:23:43.935Z,31.21
2023-04-23T05:24:44.078Z,31.22
2023-04-23T05:25:44.014Z,31.20
2023-04-23T05:26:44.052Z,31.20
2023-04-23T05:27:44.005Z,31.21
2023-04-23T05:28:44.108Z,31.20
2023-04-23T05:29:44.063Z,31.19
2023-04-23T05:30:44.181Z,31.22
2023-04-23T05:31:44.134Z,31.20
2023-04-23T05:32:44.173Z,31.23
2023-04-23T05:33:49.809Z,31.21
2023-04-23T05:34:45.153Z,31.24
2023-04-23T05:35:44.212Z,31.24
2023-04-23T05:36:44.227Z,31.23
2023-04-23T05:37:44.124Z,31.21
2023-04-23T05:38:44.106Z,31.22
2023-04-23T05:39:44.623Z,31.23
2023-04-23T05:40:44.065Z,31.23
2023-04-23T05:41:44.154Z,31.22
2023-04-23T05:42:44.305Z,31.23
2023-04-23T05:43:44.196Z,31.22
2023-04-23T05:44:44.196Z,31.22
2023-04-23T05:45:44.258Z,31.21
2023-04-23T05:46:44.245Z,31.21
2023-04-23T05:47:44.255Z,31.23
2023-04-23T05:48:44.254Z,31.22
2023-04-23T05:49:44.301Z,31.24
2023-04-23T05:50:44.314Z,31.24
2023-04-23T05:51:44.796Z,31.24
2023-04-23T05:52:44.352Z,31.23
2023-04-23T05:53:44.374Z,31.23
2023-04-23T05:54:44.508Z,31.23
2023-04-23T05:55:44.443Z,31.24
2023-04-23T05:56:44.505Z,31.24
2023-04-23T05:57:44.456Z,31.23
2023-04-23T05:58:44.521Z,31.23
2023-04-23T05:59:44.529Z,31.23
2023-04-23T06:00:44.681Z,31.24
2023-04-23T06:01:44.587Z,31.24
2023-04-23T06:02:44.746Z,31.26
2023-04-23T06:03:44.748Z,31.25
2023-04-23T06:04:44.965Z,31.25
2023-04-23T06:05:44.711Z,31.24
2023-04-23T06:06:44.725Z,31.24
2023-04-23T06:07:44.733Z,31.24
2023-04-23T06:08:44.764Z,31.24
2023-04-23T06:09:44.869Z,31.25
2023-04-23T06:10:44.850Z,31.25
2023-04-23T06:11:45.479Z,31.25
2023-04-23T06:12:44.905Z,31.25
2023-04-23T06:13:44.917Z,31.26
2023-04-23T06:14:45.013Z,31.25
2023-04-23T06:15:45.002Z,31.25
2023-04-23T06:16:45.018Z,31.25
2023-04-23T06:17:45.044Z,31.25
2023-04-23T06:18:45.033Z,31.25
2023-04-23T06:19:45.115Z,31.26
2023-04-23T06:20:45.167Z,31.24
2023-04-23T06:21:45.149Z,31.27
2023-04-23T06:22:45.243Z,31.25
2023-04-23T06:23:45.192Z,31.26
2023-04-23T06:24:45.251Z,31.26
2023-04-23T06:25:45.265Z,31.25
2023-04-23T06:26:45.280Z,31.26
2023-04-23T06:27:45.382Z,31.26
2023-04-23T06:28:45.339Z,31.24
2023-04-23T06:29:45.385Z,31.25
2023-04-23T06:30:45.402Z,31.26
2023-04-23T06:31:45.499Z,31.26
2023-04-23T06:32:45.462Z,31.25
2023-04-23T06:33:45.527Z,31.26
2023-04-23T06:34:59.340Z,31.26
2023-04-23T06:35:46.478Z,31.26
2023-04-23T06:36:45.483Z,31.27
2023-04-23T06:37:45.478Z,31.24
2023-04-23T06:38:45.456Z,31.27
2023-04-23T06:39:45.460Z,31.26
2023-04-23T06:40:45.499Z,31.24
2023-04-23T06:41:45.482Z,31.25
2023-04-23T06:42:45.510Z,31.25
2023-04-23T06:43:45.519Z,31.27
2023-04-23T06:44:45.635Z,31.28
2023-04-23T06:45:45.636Z,31.28
2023-04-23T06:46:45.736Z,31.25
2023-04-23T06:47:45.828Z,31.26
2023-04-23T06:48:45.837Z,31.27
2023-04-23T06:49:45.860Z,31.27
2023-04-23T06:50:45.946Z,31.27
2023-04-23T06:51:45.997Z,31.29
2023-04-23T06:52:46.063Z,31.28
2023-04-23T06:53:46.070Z,31.27
2023-04-23T06:54:46.199Z,31.26
2023-04-23T06:55:46.191Z,31.25
2023-04-23T06:56:46.215Z,31.26
2023-04-23T06:57:46.292Z,31.26
2023-04-23T06:58:46.640Z,31.28
2023-04-23T06:59:46.354Z,31.26
2023-04-23T07:00:46.537Z,31.28
2023-04-23T07:01:46.524Z,31.27
2023-04-23T07:02:46.621Z,31.26
2023-04-23T07:03:46.697Z,31.26
2023-04-23T07:04:46.973Z,31.28
2023-04-23T07:05:46.765Z,31.27
2023-04-23T07:06:46.808Z,31.26
2023-04-23T07:07:46.828Z,31.27
2023-04-23T07:08:46.924Z,31.29
2023-04-23T07:09:47.001Z,31.28
2023-04-23T07:10:47.149Z,31.29
2023-04-23T07:11:47.065Z,31.30
2023-04-23T07:12:47.153Z,31.28
2023-04-23T07:13:47.253Z,31.29
2023-04-23T07:14:47.309Z,31.28
2023-04-23T07:15:47.364Z,31.28
2023-04-23T07:16:47.436Z,31.29
2023-04-23T07:17:47.582Z,31.29
2023-04-23T07:18:47.599Z,31.28
2023-04-23T07:19:47.599Z,31.27
2023-04-23T07:20:47.704Z,31.28
2023-04-23T07:21:47.752Z,31.28
2023-04-23T07:22:47.826Z,31.27
2023-04-23T07:23:47.826Z,31.26
2023-04-23T07:24:47.972Z,31.27
2023-04-23T07:25:47.967Z,31.26
2023-04-23T07:26:47.977Z,31.27
2023-04-23T07:27:48.090Z,31.26
2023-04-23T07:28:48.618Z,31.26
2023-04-23T07:29:48.281Z,31.26
2023-04-23T07:30:48.309Z,31.27
2023-04-23T07:31:48.429Z,31.26
2023-04-23T07:32:48.580Z,31.25
2023-04-23T07:33:48.453Z,31.25
2023-04-23T07:34:48.530Z,31.24
2023-04-23T07:35:48.639Z,31.27
2023-04-23T07:36:48.642Z,31.23
2023-04-23T07:37:48.712Z,31.25
2023-04-23T07:38:48.794Z,31.25
2023-04-23T07:39:49.120Z,31.23
2023-04-23T07:40:48.895Z,31.25
2023-04-23T07:41:49.013Z,31.24
2023-04-23T07:42:49.050Z,31.25
2023-04-23T07:43:49.060Z,31.24
2023-04-23T07:44:49.208Z,31.24
2023-04-23T07:45:49.265Z,31.24
2023-04-23T07:46:49.253Z,31.25
2023-04-23T07:47:49.447Z,31.24
2023-04-23T07:48:49.413Z,31.24
2023-04-23T07:49:49.482Z,31.25
2023-04-23T07:50:49.559Z,31.24
2023-04-23T07:51:49.664Z,31.25
2023-04-23T07:52:49.653Z,31.27
2023-04-23T07:53:49.744Z,31.26
2023-04-23T07:54:49.788Z,31.27
2023-04-23T07:55:49.902Z,31.27
2023-04-23T07:56:50.003Z,31.24
2023-04-23T07:57:50.019Z,31.24
2023-04-23T07:58:50.025Z,31.26
2023-04-23T07:59:50.075Z,31.26
2023-04-23T08:00:50.135Z,31.23
2023-04-23T08:01:50.549Z,31.22
2023-04-23T08:02:50.332Z,31.22
2023-04-23T08:03:50.474Z,31.22
2023-04-23T08:04:50.446Z,31.18
2023-04-23T08:05:50.420Z,31.18
2023-04-23T08:06:50.478Z,31.17
2023-04-23T08:07:50.532Z,31.19
2023-04-23T08:08:50.722Z,31.17
2023-04-23T08:09:50.731Z,31.17
2023-04-23T08:10:50.756Z,31.16
2023-04-23T08:11:50.868Z,31.14
2023-04-23T08:12:51.558Z,31.18
2023-04-23T08:13:50.974Z,31.16
2023-04-23T08:14:51.078Z,31.15
2023-04-23T08:15:51.073Z,31.16
2023-04-23T08:16:51.087Z,31.12
2023-04-23T08:17:51.314Z,31.11
2023-04-23T08:19:04.074Z,31.13
2023-04-23T08:19:52.314Z,31.11
2023-04-23T08:20:51.322Z,31.09
2023-04-23T08:21:51.275Z,31.10
2023-04-23T08:22:51.221Z,31.07
2023-04-23T08:23:51.149Z,31.06
2023-04-23T08:24:51.352Z,31.05
2023-04-23T08:25:51.135Z,31.04
2023-04-23T08:26:51.163Z,31.04
2023-04-23T08:27:51.164Z,31.03
2023-04-23T08:28:51.267Z,31.01
2023-04-23T08:29:51.354Z,30.99
2023-04-23T08:30:51.355Z,30.99
2023-04-23T08:31:51.335Z,30.98
2023-04-23T08:32:51.503Z,30.99
2023-04-23T08:33:51.401Z,30.97
2023-04-23T08:34:51.658Z,30.98
2023-04-23T08:35:51.486Z,30.97
2023-04-23T08:36:51.593Z,30.96
2023-04-23T08:37:51.595Z,30.95
2023-04-23T08:38:51.655Z,30.93
2023-04-23T08:39:51.701Z,30.94
2023-04-23T08:40:51.725Z,30.92
2023-04-23T08:41:51.820Z,30.92
2023-04-23T08:42:51.816Z,30.90
2023-04-23T08:43:51.888Z,30.89
2023-04-23T08:44:51.891Z,30.89
2023-04-23T08:45:52.095Z,30.88
2023-04-23T08:46:51.990Z,30.89
2023-04-23T08:47:52.061Z,30.88
2023-04-23T08:48:52.078Z,30.88
2023-04-23T08:49:52.072Z,30.88
2023-04-23T08:50:52.136Z,30.85
2023-04-23T08:51:52.134Z,30.85
2023-04-23T08:52:52.186Z,30.83
2023-04-23T08:53:52.337Z,30.82
2023-04-23T08:54:52.476Z,30.84
2023-04-23T08:55:52.384Z,30.82
2023-04-23T08:56:52.544Z,30.84
2023-04-23T08:57:52.521Z,30.82
2023-04-23T08:58:52.469Z,30.81
2023-04-23T08:59:52.508Z,30.82
2023-04-23T09:00:52.538Z,30.81
2023-04-23T09:01:52.683Z,30.83
2023-04-23T09:02:52.776Z,30.82
2023-04-23T09:03:52.759Z,30.83
2023-04-23T09:04:54.085Z,30.79
2023-04-23T09:05:52.641Z,30.82
2023-04-23T09:06:52.681Z,30.81
2023-04-23T09:07:52.655Z,30.80
2023-04-23T09:08:52.694Z,30.78
2023-04-23T09:09:52.620Z,30.80
2023-04-23T09:10:52.632Z,30.79
2023-04-23T09:11:54.761Z,30.77
2023-04-23T09:12:52.707Z,30.79
2023-04-23T09:13:52.721Z,30.81
2023-04-23T09:14:52.670Z,30.80
2023-04-23T09:15:52.722Z,30.80
2023-04-23T09:16:52.821Z,30.81
2023-04-23T09:17:52.764Z,30.78
2023-04-23T09:18:52.760Z,30.78
2023-04-23T09:19:52.856Z,30.81
2023-04-23T09:20:52.852Z,30.80
2023-04-23T09:21:52.859Z,30.80
2023-04-23T09:22:53.073Z,30.79
2023-04-23T09:23:52.945Z,30.82
2023-04-23T09:24:53.001Z,30.82
2023-04-23T09:25:53.035Z,30.82
2023-04-23T09:26:53.325Z,30.81
2023-04-23T09:27:53.147Z,30.80
2023-04-23T09:28:53.110Z,30.81
2023-04-23T09:29:53.170Z,30.79
2023-04-23T09:30:53.173Z,30.81
2023-04-23T09:31:53.280Z,30.78
2023-04-23T09:32:53.324Z,30.81
2023-04-23T09:33:53.308Z,30.81
2023-04-23T09:34:53.376Z,30.79
2023-04-23T09:35:53.391Z,30.78
2023-04-23T09:36:53.437Z,30.83
2023-04-23T09:37:53.514Z,30.81
2023-04-23T09:38:53.500Z,30.79
2023-04-23T09:39:53.512Z,30.81
2023-04-23T09:40:53.565Z,30.79
2023-04-23T09:41:53.614Z,30.81
2023-04-23T09:42:53.632Z,30.80
2023-04-23T09:43:53.722Z,30.80
2023-04-23T09:44:53.682Z,30.81
2023-04-23T09:45:53.768Z,30.77
2023-04-23T09:46:53.766Z,30.80
2023-04-23T09:47:53.894Z,30.78
2023-04-23T09:48:53.835Z,30.80
2023-04-23T09:49:53.867Z,30.79
2023-04-23T09:50:53.874Z,30.81
2023-04-23T09:51:53.956Z,30.79
2023-04-23T09:52:53.972Z,30.79
2023-04-23T09:53:53.998Z,30.79
2023-04-23T09:54:54.026Z,30.79
2023-04-23T09:55:54.083Z,30.78
2023-04-23T09:56:54.064Z,30.79
2023-04-23T09:57:54.126Z,30.80
2023-04-23T09:58:54.191Z,30.81
2023-04-23T10:00:00.525Z,30.81
2023-04-23T10:00:55.212Z,30.79
2023-04-23T10:01:54.150Z,30.78
2023-04-23T10:02:54.213Z,30.80
2023-04-23T10:03:54.389Z,30.80
2023-04-23T10:06:01.067Z,30.78
2023-04-23T10:07:07.533Z,30.81
2023-04-23T10:07:55.167Z,30.83
2023-04-23T10:08:54.153Z,30.79
2023-04-23T10:09:54.121Z,30.81
2023-04-23T10:11:06.019Z,30.79
2023-04-23T10:11:55.091Z,30.81
2023-04-23T10:12:55.305Z,30.78
2023-04-23T10:13:54.177Z,30.80
2023-04-23T10:14:54.086Z,30.78
2023-04-23T10:15:54.149Z,30.82
2023-04-23T10:16:54.139Z,30.79
2023-04-23T10:17:54.084Z,30.81
2023-04-23T10:18:54.088Z,30.78
2023-04-23T10:19:54.032Z,30.77
2023-04-23T10:20:54.036Z,30.80
2023-04-23T10:22:00.011Z,30.77
2023-04-23T10:22:55.018Z,30.78
2023-04-23T10:23:54.047Z,30.79
2023-04-23T10:24:54.004Z,30.79
2023-04-23T10:25:54.009Z,30.79
2023-04-23T10:26:54.039Z,30.78
2023-04-23T10:27:54.761Z,30.77
2023-04-23T10:28:53.993Z,30.76
2023-04-23T10:29:53.998Z,30.75
2023-04-23T10:30:53.952Z,30.75
2023-04-23T10:31:53.962Z,30.75
2023-04-23T10:32:53.986Z,30.75
2023-04-23T10:34:53.949Z,30.75
2023-04-23T10:35:53.916Z,30.74
2023-04-23T10:36:53.882Z,30.74
2023-04-23T10:37:53.930Z,30.74
2023-04-23T10:38:58.861Z,30.74
2023-04-23T10:39:54.926Z,30.74
2023-04-23T10:40:53.884Z,30.74
2023-04-23T10:41:53.978Z,30.74
2023-04-23T10:42:53.887Z,30.75
2023-04-23T10:43:53.957Z,30.75
2023-04-23T10:44:59.451Z,30.76
2023-04-23T10:45:54.871Z,30.75
2023-04-23T10:46:53.928Z,30.74
2023-04-23T10:47:53.844Z,30.76
2023-04-23T10:48:53.847Z,30.75
2023-04-23T10:49:53.900Z,30.75
2023-04-23T10:51:09.828Z,30.75
2023-04-23T10:52:53.811Z,30.73
2023-04-23T10:53:53.797Z,30.76
2023-04-23T10:54:53.810Z,30.74
2023-04-23T10:55:53.819Z,30.75
2023-04-23T10:56:53.820Z,30.74
2023-04-23T10:57:53.837Z,30.75
2023-04-23T10:58:53.787Z,30.72
2023-04-23T10:59:53.736Z,30.73
2023-04-23T11:00:53.793Z,30.75
2023-04-23T11:01:53.834Z,30.75
2023-04-23T11:02:53.873Z,30.75
2023-04-23T11:03:53.886Z,30.75
2023-04-23T11:04:53.807Z,30.76
2023-04-23T11:05:53.719Z,30.76
2023-04-23T11:06:53.782Z,30.73
2023-04-23T11:07:53.709Z,30.75
2023-04-23T11:08:53.985Z,30.74
2023-04-23T11:09:53.706Z,30.73
2023-04-23T11:10:53.716Z,30.74
2023-04-23T11:11:53.660Z,30.72
2023-04-23T11:12:53.698Z,30.72
2023-04-23T11:13:53.695Z,30.73
2023-04-23T11:14:53.686Z,30.70
2023-04-23T11:15:53.896Z,30.71
2023-04-23T11:16:53.725Z,30.71
2023-04-23T11:17:53.912Z,30.67
2023-04-23T11:18:53.665Z,30.68
2023-04-23T11:19:53.689Z,30.68
2023-04-23T11:20:53.619Z,30.67
2023-04-23T11:21:53.582Z,30.68
2023-04-23T11:22:53.612Z,30.68
2023-04-23T11:23:53.570Z,30.70
2023-04-23T11:24:53.650Z,30.71
2023-04-23T11:25:53.610Z,30.71
2023-04-23T11:26:53.571Z,30.72
2023-04-23T11:27:53.590Z,30.73
2023-04-23T11:28:53.576Z,30.74
2023-04-23T11:29:53.593Z,30.71
2023-04-23T11:30:53.681Z,30.70
2023-04-23T11:32:02.625Z,30.69
2023-04-23T11:32:54.841Z,30.69
2023-04-23T11:33:53.576Z,30.68
2023-04-23T11:34:53.729Z,30.68
2023-04-23T11:35:53.557Z,30.70
2023-04-23T11:36:53.524Z,30.71
2023-04-23T11:37:53.484Z,30.69
2023-04-23T11:38:53.545Z,30.67
2023-04-23T11:39:53.510Z,30.67
2023-04-23T11:40:53.549Z,30.68
2023-04-23T11:41:53.675Z,30.66
2023-04-23T11:42:53.534Z,30.68
2023-04-23T11:43:53.633Z,30.68
2023-04-23T11:44:53.442Z,30.68
2023-04-23T11:45:53.516Z,30.70
2023-04-23T11:46:53.425Z,30.65
2023-04-23T11:47:53.495Z,30.67
2023-04-23T11:48:53.481Z,30.67
2023-04-23T11:49:53.412Z,30.68
2023-04-23T11:50:53.416Z,30.68
2023-04-23T11:51:53.448Z,30.67
2023-04-23T11:52:53.435Z,30.69
2023-04-23T11:53:53.450Z,30.69
2023-04-23T11:54:53.409Z,30.71
2023-04-23T11:55:53.382Z,30.72
2023-04-23T11:56:53.458Z,30.72
2023-04-23T11:57:53.439Z,30.70
2023-04-23T11:58:53.530Z,30.68
2023-04-23T11:59:53.369Z,30.68
2023-04-23T12:00:53.379Z,30.70
2023-04-23T12:01:53.515Z,30.72
2023-04-23T12:02:53.621Z,30.70
2023-04-23T12:03:53.481Z,30.72
2023-04-23T12:04:53.460Z,30.72
2023-04-23T12:05:53.415Z,30.73
2023-04-23T12:06:53.428Z,30.71
2023-04-23T12:07:53.442Z,30.72
2023-04-23T12:08:53.449Z,30.72
2023-04-23T12:09:53.529Z,30.72
2023-04-23T12:10:53.550Z,30.71
2023-04-23T12:11:53.488Z,30.76
2023-04-23T12:12:53.483Z,30.78
2023-04-23T12:13:53.505Z,30.75
2023-04-23T12:14:53.611Z,30.81
2023-04-23T12:15:53.656Z,30.78
2023-04-23T12:16:53.565Z,30.77
2023-04-23T12:17:53.696Z,30.77
2023-04-23T12:18:53.628Z,30.71
2023-04-23T12:19:53.709Z,30.69
2023-04-23T12:20:53.620Z,30.68
2023-04-23T12:21:53.620Z,30.72
2023-04-23T12:22:53.742Z,30.68
2023-04-23T12:23:53.649Z,30.72
2023-04-23T12:24:53.777Z,30.68
2023-04-23T12:25:53.652Z,30.70
2023-04-23T12:26:53.714Z,30.67
2023-04-23T12:27:53.666Z,30.70
2023-04-23T12:28:53.786Z,30.70
2023-04-23T12:29:53.795Z,30.69
2023-04-23T12:30:53.792Z,30.71
2023-04-23T12:31:53.714Z,30.73
2023-04-23T12:32:53.777Z,30.74
2023-04-23T12:33:53.763Z,30.76
2023-04-23T12:34:53.746Z,30.74
2023-04-23T12:35:53.734Z,30.71
2023-04-23T12:36:53.731Z,30.71
2023-04-23T12:37:53.947Z,30.66
2023-04-23T12:38:53.747Z,30.68
2023-04-23T12:39:53.815Z,30.69
2023-04-23T12:40:53.758Z,30.68
2023-04-23T12:41:53.760Z,30.74
2023-04-23T12:42:53.878Z,30.76
2023-04-23T12:43:53.886Z,30.73
2023-04-23T12:44:53.791Z,30.72
2023-04-23T12:45:53.793Z,30.71
2023-04-23T12:46:55.781Z,30.75
2023-04-23T12:47:53.839Z,30.77
2023-04-23T12:48:53.910Z,30.75
2023-04-23T12:49:54.170Z,30.73
2023-04-23T12:50:53.807Z,30.71
2023-04-23T12:51:53.780Z,30.73
2023-04-23T12:52:53.797Z,30.72
2023-04-23T12:53:53.750Z,30.73
2023-04-23T12:54:53.752Z,30.74
2023-04-23T12:55:53.758Z,30.73